Observation data for Hart on 12/08/2018      Previous  Date  Next       Current Mesonet Observations  Soil Data  Daily Summary Page  Observations in Plain Language
KHRS 080600Z 05008KT M01/M02 A3028 RMK A01 T10081018  RH  094%=      5-min Rain = 0
KHRS 080605Z 05008KT M01/M02 A3028 RMK A01 T10091018  RH  094%=      5-min Rain = 0
KHRS 080610Z 04007KT M01/M02 A3028 RMK A01 T10091018  RH  095%=      5-min Rain = 0
KHRS 080615Z 04009KT M01/M02 A3028 RMK A01 T10101018  RH  095%=      5-min Rain = 0
KHRS 080620Z 04010KT M01/M02 A3027 RMK A01 T10111019  RH  095%=      5-min Rain = 0
KHRS 080625Z 04008KT M01/M02 A3027 RMK A01 T10111019  RH  095%=      5-min Rain = 0
KHRS 080630Z 04008KT M01/M02 A3027 RMK A01 T10111020  RH  095%=      5-min Rain = 0
KHRS 080635Z 04006KT M01/M02 A3028 RMK A01 T10111019  RH  095%=      5-min Rain = 0
KHRS 080640Z 04008KT M01/M02 A3028 RMK A01 T10121020  RH  095%=      5-min Rain = 0
KHRS 080645Z 04009KT M01/M02 A3028 RMK A01 T10121021  RH  095%=      5-min Rain = 0
KHRS 080650Z 04008KT M01/M02 A3028 RMK A01 T10131021  RH  095%=      5-min Rain = 0
KHRS 080655Z 04009KT M01/M02 A3028 RMK A01 T10131021  RH  096%=      5-min Rain = 0
KHRS 080700Z 04009KT M01/M02 A3027 RMK A01 T10131020  RH  096%=      5-min Rain = 0
KHRS 080705Z 03009KT M01/M02 A3027 RMK A01 T10131020  RH  096%=      5-min Rain = 0
KHRS 080710Z 03009KT M01/M02 A3027 RMK A01 T10131019  RH  096%=      5-min Rain = 0
KHRS 080715Z 03009KT M01/M02 A3027 RMK A01 T10131019  RH  097%=      5-min Rain = 0
KHRS 080720Z 03008KT M01/M02 A3027 RMK A01 T10131019  RH  097%=      5-min Rain = 0
KHRS 080725Z 03008KT M01/M02 A3027 RMK A01 T10131018  RH  097%=      5-min Rain = 0
KHRS 080730Z 03007KT M01/M02 A3027 RMK A01 T10131018  RH  097%=      5-min Rain = 0
KHRS 080735Z 03007KT M01/M02 A3027 RMK A01 T10131018  RH  098%=      5-min Rain = 0
KHRS 080740Z 03007KT M01/M02 A3027 RMK A01 T10131018  RH  098%=      5-min Rain = 0
KHRS 080745Z 03007KT M01/M02 A3027 RMK A01 T10131017  RH  098%=      5-min Rain = 0
KHRS 080750Z 03008KT M01/M02 A3027 RMK A01 T10121017  RH  098%=      5-min Rain = 0
KHRS 080755Z 03008KT M01/M02 A3026 RMK A01 T10121016  RH  098%=      5-min Rain = 0
KHRS 080800Z 03008KT M01/M02 A3026 RMK A01 T10121016  RH  098%=      5-min Rain = 0
KHRS 080805Z 03008KT M01/M02 A3026 RMK A01 T10121016  RH  098%=      5-min Rain = 0
KHRS 080810Z 02008KT M01/M02 A3026 RMK A01 T10121016  RH  098%=      5-min Rain = 0
KHRS 080815Z 02007KT M01/M02 A3026 RMK A01 T10111015  RH  099%=      5-min Rain = 0
KHRS 080820Z 02009KT M01/M02 A3026 RMK A01 T10121015  RH  099%=      5-min Rain = 0
KHRS 080825Z 02009KT M01/M02 A3026 RMK A01 T10121015  RH  099%=      5-min Rain = 0
KHRS 080830Z 02008KT M01/M02 A3026 RMK A01 T10111015  RH  099%=      5-min Rain = 0
KHRS 080835Z 02007KT M01/M01 A3026 RMK A01 T10111014  RH  099%=      5-min Rain = 0
KHRS 080840Z 02006KT M01/M01 A3026 RMK A01 T10111014  RH  099%=      5-min Rain = 0
KHRS 080845Z 01006KT M01/M01 A3027 RMK A01 T10101013  RH  099%=      5-min Rain = 0
KHRS 080850Z 01007KT M01/M01 A3026 RMK A01 T10101013  RH  099%=      5-min Rain = 0
KHRS 080855Z 01009KT M01/M01 A3026 RMK A01 T10101013  RH  099%=      5-min Rain = 0
KHRS 080900Z 03009KT M01/M01 A3026 RMK A01 T10101013  RH  099%=      5-min Rain = 0
KHRS 080905Z 03008KT M01/M01 A3026 RMK A01 T10101013  RH  099%=      5-min Rain = 0
KHRS 080910Z 03007KT M01/M01 A3026 RMK A01 T10101013  RH  099%=      5-min Rain = 0
KHRS 080915Z 03007KT M01/M01 A3026 RMK A01 T10101013  RH  099%=      5-min Rain = 0
KHRS 080920Z 02006KT M01/M01 A3026 RMK A01 T10101013  RH  099%=      5-min Rain = 0
KHRS 080925Z 02008KT M01/M01 A3026 RMK A01 T10111013  RH  099%=      5-min Rain = 0
KHRS 080930Z 02008KT M01/M02 A3026 RMK A01 T10121015  RH  099%=      5-min Rain = 0
KHRS 080935Z 02009KT M01/M02 A3025 RMK A01 T10141016  RH  099%=      5-min Rain = 0
KHRS 080940Z 02009KT M01/M02 A3025 RMK A01 T10141017  RH  099%=      5-min Rain = 0
KHRS 080945Z 02008KT M02/M02 A3025 RMK A01 T10151017  RH  099%=      5-min Rain = 0
KHRS 080950Z 01007KT M02/M02 A3025 RMK A01 T10151018  RH  100%=      5-min Rain = 0
KHRS 080955Z 01008KT M02/M02 A3025 RMK A01 T10161018  RH  100%=      5-min Rain = 0
KHRS 081000Z 01008KT M02/M02 A3025 RMK A01 T10171019  RH  100%=      5-min Rain = 0
KHRS 081005Z 01007KT M02/M02 A3025 RMK A01 T10171019  RH  100%=      5-min Rain = 0
KHRS 081010Z 00008KT M02/M02 A3025 RMK A01 T10171019  RH  100%=      5-min Rain = 0
KHRS 081015Z 00007KT M02/M02 A3025 RMK A01 T10171018  RH  100%=      5-min Rain = 0
KHRS 081020Z 00008KT M02/M02 A3025 RMK A01 T10171018  RH  100%=      5-min Rain = 0
KHRS 081025Z 00008KT M02/M02 A3024 RMK A01 T10171018  RH  100%=      5-min Rain = 0
KHRS 081030Z 00008KT M02/M02 A3024 RMK A01 T10171018  RH  100%=      5-min Rain = 0
KHRS 081035Z 00007KT M02/M02 A3024 RMK A01 T10171018  RH  100%=      5-min Rain = 0
KHRS 081040Z 00007KT M02/M02 A3024 RMK A01 T10171019  RH  100%=      5-min Rain = 0
KHRS 081045Z 36007KT M02/M02 A3024 RMK A01 T10171018  RH  100%=      5-min Rain = 0
KHRS 081050Z 35007KT M02/M02 A3024 RMK A01 T10171018  RH  100%=      5-min Rain = 0
KHRS 081055Z 35007KT M02/M02 A3024 RMK A01 T10171018  RH  100%=      5-min Rain = 0
KHRS 081100Z 36007KT M02/M02 A3024 RMK A01 T10171018  RH  100%=      5-min Rain = 0
KHRS 081105Z 36007KT M02/M02 A3024 RMK A01 T10171018  RH  100%=      5-min Rain = 0
KHRS 081110Z 00008KT M02/M02 A3024 RMK A01 T10171018  RH  100%=      5-min Rain = 0
KHRS 081115Z 00007KT M02/M02 A3024 RMK A01 T10171018  RH  100%=      5-min Rain = 0
KHRS 081120Z 36007KT M02/M02 A3024 RMK A01 T10171018  RH  100%=      5-min Rain = 0
KHRS 081125Z 36009KT M02/M02 A3023 RMK A01 T10171019  RH  100%=      5-min Rain = 0
KHRS 081130Z 36008KT M02/M02 A3024 RMK A01 T10171019  RH  100%=      5-min Rain = 0
KHRS 081135Z 35008KT M02/M02 A3024 RMK A01 T10171019  RH  100%=      5-min Rain = 0
KHRS 081140Z 35008KT M02/M02 A3024 RMK A01 T10171019  RH  100%=      5-min Rain = 0
KHRS 081145Z 35008KT M02/M02 A3024 RMK A01 T10171019  RH  100%=      5-min Rain = 0
KHRS 081150Z 35009KT M02/M02 A3024 RMK A01 T10181019  RH  100%=      5-min Rain = 0
KHRS 081155Z 35009KT M02/M02 A3024 RMK A01 T10181019  RH  100%=      5-min Rain = 0
KHRS 081200Z 35009KT M02/M02 A3024 RMK A01 T10181020  RH  100%=      5-min Rain = 0
KHRS 081205Z 35009KT M02/M02 A3024 RMK A01 T10181020  RH  100%=      5-min Rain = 0
KHRS 081210Z 36008KT M02/M02 A3024 RMK A01 T10181020  RH  100%=      5-min Rain = 0
KHRS 081215Z 00008KT M02/M02 A3024 RMK A01 T10181020  RH  100%=      5-min Rain = 0
KHRS 081220Z 01008KT M02/M02 A3024 RMK A01 T10181020  RH  100%=      5-min Rain = 0
KHRS 081225Z 00007KT M02/M02 A3024 RMK A01 T10181020  RH  100%=      5-min Rain = 0
KHRS 081230Z 01007KT M02/M02 A3024 RMK A01 T10181019  RH  100%=      5-min Rain = 0
KHRS 081235Z 00008KT M02/M02 A3024 RMK A01 T10181019  RH  100%=      5-min Rain = 0
KHRS 081240Z 00008KT M02/M02 A3024 RMK A01 T10181020  RH  100%=      5-min Rain = 0
KHRS 081245Z 00008KT M02/M02 A3024 RMK A01 T10181020  RH  100%=      5-min Rain = 0
KHRS 081250Z 00009KT M02/M02 A3024 RMK A01 T10181020  RH  100%=      5-min Rain = 0
KHRS 081255Z 00009KT M02/M02 A3024 RMK A01 T10191020  RH  100%=      5-min Rain = 0
KHRS 081300Z 00008KT M02/M02 A3024 RMK A01 T10191020  RH  100%=      5-min Rain = 0
KHRS 081305Z 01008KT M02/M02 A3025 RMK A01 T10191020  RH  100%=      5-min Rain = 0
KHRS 081310Z 00008KT M02/M02 A3025 RMK A01 T10191020  RH  100%=      5-min Rain = 0
KHRS 081315Z 01008KT M02/M02 A3025 RMK A01 T10191021  RH  100%=      5-min Rain = 0
KHRS 081320Z 01008KT M02/M02 A3025 RMK A01 T10191021  RH  100%=      5-min Rain = 0
KHRS 081325Z 01008KT M02/M02 A3026 RMK A01 T10201021  RH  100%=      5-min Rain = 0
KHRS 081330Z 01007KT M02/M02 A3026 RMK A01 T10201021  RH  100%=      5-min Rain = 0
KHRS 081335Z 01007KT M02/M02 A3026 RMK A01 T10201022  RH  100%=      5-min Rain = 0
KHRS 081340Z 01007KT M02/M02 A3027 RMK A01 T10201022  RH  100%=      5-min Rain = 0
KHRS 081345Z 01006KT M02/M02 A3027 RMK A01 T10201022  RH  100%=      5-min Rain = 0
KHRS 081350Z 01005KT M02/M02 A3027 RMK A01 T10201022  RH  100%=      5-min Rain = 0
KHRS 081355Z 01005KT M02/M02 A3027 RMK A01 T10201022  RH  100%=      5-min Rain = 0
KHRS 081400Z 00006KT M02/M02 A3027 RMK A01 T10201021  RH  100%=      5-min Rain = 0
KHRS 081405Z 01006KT M02/M02 A3027 RMK A01 T10201021  RH  100%=      5-min Rain = 0
KHRS 081410Z 00006KT M02/M02 A3028 RMK A01 T10201021  RH  100%=      5-min Rain = 0
KHRS 081415Z 36005KT M02/M02 A3028 RMK A01 T10191021  RH  100%=      5-min Rain = 0
KHRS 081420Z 35005KT M02/M02 A3028 RMK A01 T10191020  RH  100%=      5-min Rain = 0
KHRS 081425Z 34004KT M02/M02 A3029 RMK A01 T10191020  RH  100%=      5-min Rain = 0
KHRS 081430Z 35005KT M02/M02 A3029 RMK A01 T10181020  RH  100%=      5-min Rain = 0
KHRS 081435Z 35006KT M02/M02 A3029 RMK A01 T10181020  RH  100%=      5-min Rain = 0
KHRS 081440Z 36006KT M02/M02 A3029 RMK A01 T10181020  RH  100%=      5-min Rain = 0
KHRS 081445Z 35007KT M02/M02 A303 RMK A01 T10181019  RH  100%=      5-min Rain = 0
KHRS 081450Z 35006KT M02/M02 A303 RMK A01 T10181019  RH  100%=      5-min Rain = 0
KHRS 081455Z 35007KT M02/M02 A303 RMK A01 T10171019  RH  100%=      5-min Rain = 0
KHRS 081500Z 35006KT M02/M02 A303 RMK A01 T10171019  RH  100%=      5-min Rain = 0
KHRS 081505Z 35006KT M02/M02 A303 RMK A01 T10171019  RH  100%=      5-min Rain = 0
KHRS 081510Z 35006KT M02/M02 A303 RMK A01 T10171018  RH  100%=      5-min Rain = 0
KHRS 081515Z 35006KT M02/M02 A303 RMK A01 T10161018  RH  100%=      5-min Rain = 0
KHRS 081520Z 36006KT M02/M02 A303 RMK A01 T10161018  RH  100%=      5-min Rain = 0
KHRS 081525Z 35006KT M02/M02 A3031 RMK A01 T10161018  RH  100%=      5-min Rain = 0
KHRS 081530Z 35007KT M02/M02 A3031 RMK A01 T10181019  RH  100%=      5-min Rain = 0
KHRS 081535Z 35007KT M02/M02 A3031 RMK A01 T10181019  RH  100%=      5-min Rain = 0
KHRS 081540Z 35007KT M02/M02 A3031 RMK A01 T10181019  RH  100%=      5-min Rain = 0
KHRS 081545Z 36006KT M02/M02 A3031 RMK A01 T10171019  RH  100%=      5-min Rain = 0
KHRS 081550Z 36006KT M02/M02 A3031 RMK A01 T10171019  RH  100%=      5-min Rain = 0
KHRS 081555Z 00006KT M02/M02 A3031 RMK A01 T10161018  RH  100%=      5-min Rain = 0
KHRS 081600Z 00007KT M02/M02 A3031 RMK A01 T10161017  RH  100%=      5-min Rain = 0
KHRS 081605Z 00007KT M02/M02 A3031 RMK A01 T10161017  RH  100%=      5-min Rain = 0
KHRS 081610Z 00007KT M02/M02 A3031 RMK A01 T10151017  RH  100%=      5-min Rain = 0
KHRS 081615Z 36007KT M02/M02 A3031 RMK A01 T10151016  RH  100%=      5-min Rain = 0
KHRS 081620Z 36006KT M01/M02 A3031 RMK A01 T10141016  RH  100%=      5-min Rain = 0
KHRS 081625Z 36007KT M01/M02 A3031 RMK A01 T10141015  RH  100%=      5-min Rain = 0
KHRS 081630Z 35006KT M01/M02 A3031 RMK A01 T10141015  RH  100%=      5-min Rain = 0
KHRS 081635Z 36006KT M01/M01 A3031 RMK A01 T10121014  RH  100%=      5-min Rain = 0
KHRS 081640Z 01006KT M01/M01 A3031 RMK A01 T10121014  RH  100%=      5-min Rain = 0
KHRS 081645Z 00006KT M01/M01 A3031 RMK A01 T10131014  RH  100%=      5-min Rain = 0
KHRS 081650Z 00006KT M01/M01 A3031 RMK A01 T10121013  RH  100%=      5-min Rain = 0
KHRS 081655Z 34007KT M01/M01 A3031 RMK A01 T10121014  RH  100%=      5-min Rain = 0
KHRS 081700Z 35008KT M01/M01 A3031 RMK A01 T10121014  RH  100%=      5-min Rain = 0
KHRS 081705Z 35008KT M01/M01 A3031 RMK A01 T10121013  RH  100%=      5-min Rain = 0
KHRS 081710Z 35008KT M01/M01 A3031 RMK A01 T10111013  RH  100%=      5-min Rain = 0.01
KHRS 081715Z 35007KT M01/M01 A3031 RMK A01 T10111012  RH  100%=      5-min Rain = 0.01
KHRS 081720Z 35006KT M01/M01 A3031 RMK A01 T10101012  RH  100%=      5-min Rain = 0.02
KHRS 081725Z 35006KT M01/M01 A3031 RMK A01 T10091010  RH  100%=      5-min Rain = 0.03
KHRS 081730Z 35006KT M01/M01 A3031 RMK A01 T10081010  RH  100%=      5-min Rain = 0.03
KHRS 081735Z 35006KT M01/M01 A303 RMK A01 T10091010  RH  100%=      5-min Rain = 0.02
KHRS 081740Z 35006KT M01/M01 A3031 RMK A01 T10101012  RH  100%=      5-min Rain = 0.02
KHRS 081745Z 34006KT M01/M01 A303 RMK A01 T10081011  RH  100%=      5-min Rain = 0.01
KHRS 081750Z 35007KT M01/M01 A303 RMK A01 T10091011  RH  099%=      5-min Rain = 0.02
KHRS 081755Z 35005KT M01/M01 A3029 RMK A01 T10071010  RH  099%=      5-min Rain = 0.01
KHRS 081800Z 35005KT M01/M01 A3029 RMK A01 T10061009  RH  099%=      5-min Rain = 0.02
KHRS 081805Z 34006KT M01/M01 A303 RMK A01 T10051008  RH  099%=      5-min Rain = 0.01
KHRS 081810Z 34005KT M01/M01 A3029 RMK A01 T10051008  RH  099%=      5-min Rain = 0.01
KHRS 081815Z 35005KT M00/M01 A3029 RMK A01 T10041007  RH  099%=      5-min Rain = 0.01
KHRS 081820Z 36006KT M00/M01 A3028 RMK A01 T10041007  RH  099%=      5-min Rain = 0
KHRS 081825Z 00006KT M00/M01 A3028 RMK A01 T10041007  RH  099%=      5-min Rain = 0
KHRS 081830Z 00006KT M00/M01 A3028 RMK A01 T10031007  RH  098%=      5-min Rain = 0.01
KHRS 081835Z 36007KT M00/M01 A3028 RMK A01 T10021006  RH  098%=      5-min Rain = 0.01
KHRS 081840Z 35007KT M00/M01 A3027 RMK A01 T10021006  RH  098%=      5-min Rain = 0.01
KHRS 081845Z 36007KT 00/01 A3027 RMK A01 T00-000-5  RH  098%=      5-min Rain = 0
KHRS 081850Z 35007KT 00/01 A3027 RMK A01 T00-000-5  RH  097%=      5-min Rain = 0.01
KHRS 081855Z 35007KT 00/M01 A3027 RMK A01 T00011005  RH  097%=      5-min Rain = 0
KHRS 081900Z 35007KT 00/M01 A3027 RMK A01 T00011005  RH  096%=      5-min Rain = 0
KHRS 081905Z 35006KT 00/M01 A3026 RMK A01 T00021006  RH  096%=      5-min Rain = 0.01
KHRS 081910Z 35007KT 00/M01 A3026 RMK A01 T00031005  RH  095%=      5-min Rain = 0
KHRS 081915Z 34006KT 00/M01 A3026 RMK A01 T00041005  RH  095%=      5-min Rain = 0
KHRS 081920Z 33007KT 00/M01 A3026 RMK A01 T00041005  RH  095%=      5-min Rain = 0
KHRS 081925Z 34007KT 01/M01 A3026 RMK A01 T00051005  RH  094%=      5-min Rain = 0
KHRS 081930Z 34006KT 01/M01 A3026 RMK A01 T00061005  RH  093%=      5-min Rain = 0
KHRS 081935Z 34006KT 01/M01 A3026 RMK A01 T00071005  RH  093%=      5-min Rain = 0
KHRS 081940Z 33007KT 01/M01 A3025 RMK A01 T00071007  RH  091%=      5-min Rain = 0
KHRS 081945Z 34008KT 01/M01 A3025 RMK A01 T00081008  RH  090%=      5-min Rain = 0
KHRS 081950Z 34007KT 01/M01 A3025 RMK A01 T00081010  RH  089%=      5-min Rain = 0
KHRS 081955Z 34007KT 01/M01 A3025 RMK A01 T00101009  RH  088%=      5-min Rain = 0
KHRS 082000Z 33006KT 01/M01 A3025 RMK A01 T00111010  RH  087%=      5-min Rain = 0
KHRS 082005Z 33007KT 01/M01 A3024 RMK A01 T00111010  RH  087%=      5-min Rain = 0
KHRS 082010Z 34005KT 01/M01 A3024 RMK A01 T00111011  RH  086%=      5-min Rain = 0
KHRS 082015Z 34006KT 01/M01 A3024 RMK A01 T00131011  RH  085%=      5-min Rain = 0
KHRS 082020Z 33006KT 01/M01 A3024 RMK A01 T00141011  RH  084%=      5-min Rain = 0
KHRS 082025Z 33004KT 01/M01 A3023 RMK A01 T00141011  RH  084%=      5-min Rain = 0
KHRS 082030Z 34005KT 02/M01 A3023 RMK A01 T00151012  RH  083%=      5-min Rain = 0
KHRS 082035Z 34005KT 02/M01 A3023 RMK A01 T00161012  RH  083%=      5-min Rain = 0
KHRS 082040Z 33004KT 02/M01 A3023 RMK A01 T00161012  RH  082%=      5-min Rain = 0
KHRS 082045Z 34005KT 02/M01 A3023 RMK A01 T00181011  RH  082%=      5-min Rain = 0
KHRS 082050Z 32005KT 02/M01 A3023 RMK A01 T00181012  RH  082%=      5-min Rain = 0
KHRS 082055Z 34006KT 02/M01 A3023 RMK A01 T00181013  RH  081%=      5-min Rain = 0
KHRS 082100Z 33006KT 02/M01 A3023 RMK A01 T00181013  RH  081%=      5-min Rain = 0
KHRS 082105Z 31004KT 02/M01 A3023 RMK A01 T00191013  RH  080%=      5-min Rain = 0
KHRS 082110Z 31004KT 02/M01 A3023 RMK A01 T00201012  RH  080%=      5-min Rain = 0
KHRS 082115Z 34005KT 02/M01 A3023 RMK A01 T00211012  RH  080%=      5-min Rain = 0
KHRS 082120Z 34005KT 02/M01 A3022 RMK A01 T00231012  RH  079%=      5-min Rain = 0
KHRS 082125Z 32005KT 02/M01 A3022 RMK A01 T00241014  RH  077%=      5-min Rain = 0
KHRS 082130Z 32004KT 03/M01 A3022 RMK A01 T00271011  RH  077%=      5-min Rain = 0
KHRS 082135Z 33005KT 03/M01 A3022 RMK A01 T00291013  RH  075%=      5-min Rain = 0
KHRS 082140Z 32004KT 03/M01 A3022 RMK A01 T00311011  RH  074%=      5-min Rain = 0
KHRS 082145Z 30004KT 03/M01 A3022 RMK A01 T00341010  RH  074%=      5-min Rain = 0
KHRS 082150Z 31004KT 03/M01 A3022 RMK A01 T00341011  RH  073%=      5-min Rain = 0
KHRS 082155Z 33005KT 03/M02 A3022 RMK A01 T00321015  RH  072%=      5-min Rain = 0
KHRS 082200Z 31004KT 03/M02 A3022 RMK A01 T00281018  RH  072%=      5-min Rain = 0
KHRS 082205Z 32003KT 03/M02 A3022 RMK A01 T00271020  RH  072%=      5-min Rain = 0
KHRS 082210Z 30003KT 03/M02 A3022 RMK A01 T00271019  RH  072%=      5-min Rain = 0
KHRS 082215Z 30004KT 03/M02 A3022 RMK A01 T00301017  RH  072%=      5-min Rain = 0
KHRS 082220Z 30004KT 03/M02 A3022 RMK A01 T00311017  RH  072%=      5-min Rain = 0
KHRS 082225Z 31004KT 03/M02 A3022 RMK A01 T00311019  RH  071%=      5-min Rain = 0
KHRS 082230Z 33003KT 03/M02 A3022 RMK A01 T00311019  RH  071%=      5-min Rain = 0
KHRS 082235Z 32003KT 03/M02 A3022 RMK A01 T00311020  RH  070%=      5-min Rain = 0
KHRS 082240Z 31005KT 03/M02 A3022 RMK A01 T00321018  RH  071%=      5-min Rain = 0
KHRS 082245Z 30005KT 03/M02 A3022 RMK A01 T00311018  RH  071%=      5-min Rain = 0
KHRS 082250Z 32005KT 03/M02 A3021 RMK A01 T00301019  RH  071%=      5-min Rain = 0
KHRS 082255Z 33004KT 03/M02 A3021 RMK A01 T00301019  RH  071%=      5-min Rain = 0
KHRS 082300Z 33003KT 03/M02 A3021 RMK A01 T00291018  RH  072%=      5-min Rain = 0
KHRS 082305Z 33003KT 03/M02 A3022 RMK A01 T00291020  RH  071%=      5-min Rain = 0
KHRS 082310Z 33003KT 03/M02 A3022 RMK A01 T00281018  RH  073%=      5-min Rain = 0
KHRS 082315Z 33003KT 03/M02 A3022 RMK A01 T00271018  RH  074%=      5-min Rain = 0
KHRS 082320Z 33003KT 03/M02 A3022 RMK A01 T00251018  RH  074%=      5-min Rain = 0
KHRS 082325Z 32003KT 02/M02 A3022 RMK A01 T00241017  RH  076%=      5-min Rain = 0
KHRS 082330Z 33002KT 02/M02 A3022 RMK A01 T00221016  RH  077%=      5-min Rain = 0
KHRS 082335Z 33002KT 02/M02 A3022 RMK A01 T00201016  RH  078%=      5-min Rain = 0
KHRS 082340Z 33002KT 02/M02 A3022 RMK A01 T00181017  RH  079%=      5-min Rain = 0
KHRS 082345Z 04002KT 02/M02 A3022 RMK A01 T00161017  RH  080%=      5-min Rain = 0
KHRS 082350Z 06002KT 01/M02 A3022 RMK A01 T00131019  RH  080%=      5-min Rain = 0
KHRS 082355Z 06003KT 01/M02 A3022 RMK A01 T00081022  RH  081%=      5-min Rain = 0
KHRS 090000Z 06003KT 01/M02 A3022 RMK A01 T00071020  RH  083%=      5-min Rain = 0
KHRS 090005Z 06003KT 00/M02 A3023 RMK A01 T00041023  RH  083%=      5-min Rain = 0
KHRS 090010Z 09004KT M00/M03 A3023 RMK A01 T10021026  RH  085%=      5-min Rain = 0
KHRS 090015Z 09005KT M01/M03 A3023 RMK A01 T10071028  RH  087%=      5-min Rain = 0
KHRS 090020Z 10004KT M01/M03 A3023 RMK A01 T10101028  RH  089%=      5-min Rain = 0
KHRS 090025Z 13003KT M01/M03 A3024 RMK A01 T10131030  RH  089%=      5-min Rain = 0
KHRS 090030Z 14004KT M01/M03 A3024 RMK A01 T10141029  RH  091%=      5-min Rain = 0
KHRS 090035Z 12005KT M02/M03 A3024 RMK A01 T10161030  RH  091%=      5-min Rain = 0
KHRS 090040Z 12005KT M02/M03 A3024 RMK A01 T10171029  RH  092%=      5-min Rain = 0
KHRS 090045Z 14004KT M02/M03 A3024 RMK A01 T10161028  RH  093%=      5-min Rain = 0
KHRS 090050Z 14004KT M02/M03 A3024 RMK A01 T10161028  RH  093%=      5-min Rain = 0
KHRS 090055Z 15004KT M02/M03 A3024 RMK A01 T10171028  RH  093%=      5-min Rain = 0
KHRS 090100Z 14004KT M02/M03 A3024 RMK A01 T10181029  RH  093%=      5-min Rain = 0
KHRS 090105Z 14004KT M02/M03 A3024 RMK A01 T10191030  RH  093%=      5-min Rain = 0
KHRS 090110Z 14003KT M02/M03 A3025 RMK A01 T10211031  RH  094%=      5-min Rain = 0
KHRS 090115Z 14002KT M02/M03 A3025 RMK A01 T10211031  RH  094%=      5-min Rain = 0
KHRS 090120Z 15002KT M02/M03 A3025 RMK A01 T10221031  RH  094%=      5-min Rain = 0
KHRS 090125Z 15002KT M02/M03 A3025 RMK A01 T10221031  RH  094%=      5-min Rain = 0
KHRS 090130Z 15002KT M02/M03 A3025 RMK A01 T10241033  RH  094%=      5-min Rain = 0
KHRS 090135Z 15002KT M02/M03 A3025 RMK A01 T10241033  RH  095%=      5-min Rain = 0
KHRS 090140Z 15002KT M03/M03 A3025 RMK A01 T10251033  RH  095%=      5-min Rain = 0
KHRS 090145Z 16003KT M02/M03 A3025 RMK A01 T10241032  RH  095%=      5-min Rain = 0
KHRS 090150Z 16003KT M02/M03 A3025 RMK A01 T10241031  RH  096%=      5-min Rain = 0
KHRS 090155Z 15003KT M03/M03 A3025 RMK A01 T10251032  RH  096%=      5-min Rain = 0
KHRS 090200Z 16003KT M03/M03 A3025 RMK A01 T10251033  RH  096%=      5-min Rain = 0
KHRS 090205Z 17002KT M03/M03 A3025 RMK A01 T10261034  RH  096%=      5-min Rain = 0
KHRS 090210Z 17002KT M03/M04 A3025 RMK A01 T10281035  RH  096%=      5-min Rain = 0
KHRS 090215Z 18003KT M03/M04 A3025 RMK A01 T10281035  RH  096%=      5-min Rain = 0
KHRS 090220Z 18002KT M03/M04 A3026 RMK A01 T10291037  RH  096%=      5-min Rain = 0
KHRS 090225Z 18002KT M03/M04 A3026 RMK A01 T10281035  RH  096%=      5-min Rain = 0
KHRS 090230Z 19002KT M03/M04 A3026 RMK A01 T10291035  RH  096%=      5-min Rain = 0
KHRS 090235Z 20001KT M03/M04 A3026 RMK A01 T10301036  RH  096%=      5-min Rain = 0
KHRS 090240Z 20001KT M03/M04 A3026 RMK A01 T10301037  RH  096%=      5-min Rain = 0
KHRS 090245Z 20001KT M03/M04 A3026 RMK A01 T10331039  RH  096%=      5-min Rain = 0
KHRS 090250Z 20000KT M03/M04 A3026 RMK A01 T10331040  RH  096%=      5-min Rain = 0
KHRS 090255Z 00000KT M03/M04 A3026 RMK A01 T10341040  RH  097%=      5-min Rain = 0
KHRS 090300Z 20000KT M03/M04 A3026 RMK A01 T10341041  RH  097%=      5-min Rain = 0
KHRS 090305Z 20000KT M04/M04 A3027 RMK A01 T10351041  RH  097%=      5-min Rain = 0
KHRS 090310Z 00000KT M04/M04 A3027 RMK A01 T10371043  RH  097%=      5-min Rain = 0
KHRS 090315Z 15000KT M04/M04 A3027 RMK A01 T10371043  RH  097%=      5-min Rain = 0
KHRS 090320Z 15001KT M04/M04 A3027 RMK A01 T10381044  RH  097%=      5-min Rain = 0
KHRS 090325Z 15001KT M04/M04 A3027 RMK A01 T10391044  RH  097%=      5-min Rain = 0
KHRS 090330Z 15002KT M04/M04 A3027 RMK A01 T10381043  RH  097%=      5-min Rain = 0
KHRS 090335Z 15002KT M04/M04 A3027 RMK A01 T10381043  RH  097%=      5-min Rain = 0
KHRS 090340Z 16002KT M04/M05 A3027 RMK A01 T10401046  RH  097%=      5-min Rain = 0
KHRS 090345Z 19002KT M04/M05 A3028 RMK A01 T10421047  RH  097%=      5-min Rain = 0
KHRS 090350Z 21003KT M04/M05 A3028 RMK A01 T10411046  RH  098%=      5-min Rain = 0
KHRS 090355Z 21003KT M04/M04 A3028 RMK A01 T10391043  RH  098%=      5-min Rain = 0
KHRS 090400Z 21003KT M04/M04 A3028 RMK A01 T10371041  RH  098%=      5-min Rain = 0
KHRS 090405Z 22003KT M04/M04 A3028 RMK A01 T10361040  RH  098%=      5-min Rain = 0
KHRS 090410Z 22003KT M03/M04 A3028 RMK A01 T10341038  RH  098%=      5-min Rain = 0
KHRS 090415Z 22002KT M03/M04 A3028 RMK A01 T10341038  RH  098%=      5-min Rain = 0
KHRS 090420Z 22003KT M03/M04 A3028 RMK A01 T10331036  RH  098%=      5-min Rain = 0
KHRS 090425Z 23003KT M03/M04 A3028 RMK A01 T10331036  RH  098%=      5-min Rain = 0
KHRS 090430Z 23003KT M03/M04 A3028 RMK A01 T10341038  RH  098%=      5-min Rain = 0
KHRS 090435Z 23003KT M03/M04 A3028 RMK A01 T10341038  RH  098%=      5-min Rain = 0
KHRS 090440Z 23003KT M04/M04 A3029 RMK A01 T10361040  RH  098%=      5-min Rain = 0
KHRS 090445Z 22004KT M04/M04 A3029 RMK A01 T10391042  RH  098%=      5-min Rain = 0
KHRS 090450Z 22003KT M04/M04 A3029 RMK A01 T10391042  RH  099%=      5-min Rain = 0
KHRS 090455Z 22003KT M04/M04 A3029 RMK A01 T10381041  RH  099%=      5-min Rain = 0
KHRS 090500Z 23004KT M04/M04 A3029 RMK A01 T10381041  RH  099%=      5-min Rain = 0
KHRS 090505Z 23005KT M04/M04 A3029 RMK A01 T10381042  RH  099%=      5-min Rain = 0
KHRS 090510Z 23005KT M04/M04 A3029 RMK A01 T10391042  RH  099%=      5-min Rain = 0
KHRS 090515Z 23006KT M04/M04 A3029 RMK A01 T10391042  RH  099%=      5-min Rain = 0
KHRS 090520Z 23006KT M04/M04 A3029 RMK A01 T10381041  RH  099%=      5-min Rain = 0
KHRS 090525Z 24005KT M04/M04 A3029 RMK A01 T10381041  RH  099%=      5-min Rain = 0
KHRS 090530Z 24005KT M04/M04 A3029 RMK A01 T10391042  RH  099%=      5-min Rain = 0
KHRS 090535Z 24005KT M04/M04 A3029 RMK A01 T10401043  RH  099%=      5-min Rain = 0
KHRS 090540Z 25004KT M04/M05 A3029 RMK A01 T10431045  RH  099%=      5-min Rain = 0
KHRS 090545Z 25005KT M04/M05 A3029 RMK A01 T10431046  RH  099%=      5-min Rain = 0
KHRS 090550Z 25004KT M04/M05 A3029 RMK A01 T10441047  RH  099%=      5-min Rain = 0
KHRS 090555Z 25004KT M05/M05 A3029 RMK A01 T10451048  RH  099%=      5-min Rain = 0

Page generated in 0.0087 seconds.